Time;durP1;ratioP1;P1;durP2;ratioP2;P2;SDS_P1;SDS_P2;PMS_P1;PMS_P2;Temp;Humidity;BMP_temperature;BMP_pressure;BME280_temperature;BME280_humidity;BME280_pressure;Samples;Min_cycle;Max_cycle;Signal;HPM_P1;HPM_P2
2020/01/10 00:00:44;;;;;;;2.8;2.05;;;;;;;0.9;63.66016;95184.12;;;;
2020/01/10 00:01:44;;;;;;;2.8;2.05;;;;;;;0.9;63.66016;95184.12;;;;
2020/01/10 00:02:49;;;;;;;2.8;2.05;;;;;;;0.9;63.66016;95184.12;;;;
2020/01/10 00:03:49;;;;;;;2.8;2.05;;;;;;;0.9;63.66016;95184.12;;;;
2020/01/10 00:04:53;;;;;;;2.8;2.05;;;;;;;0.9;63.66016;95184.12;;;;
2020/01/10 00:05:54;;;;;;;2.8;2.05;;;;;;;0.9;63.66016;95184.12;;;;
2020/01/10 00:07:19;;;;;;;2.8;2.05;;;;;;;0.9;63.66016;95184.12;;;;
2020/01/10 00:08:22;;;;;;;2.8;2.05;;;;;;;0.9;63.66016;95184.12;;;;
2020/01/10 00:09:23;;;;;;;2.8;2.05;;;;;;;0.9;63.66016;95184.12;;;;
2020/01/10 00:10:26;;;;;;;2.8;2.05;;;;;;;0.9;63.66016;95184.12;;;;
2020/01/10 00:11:33;;;;;;;3.6;2.05;;;;;;;0.71;63.96777;95182.36;;;;
2020/01/10 00:12:35;;;;;;;3.6;2.05;;;;;;;0.71;63.96777;95182.36;;;;
2020/01/10 00:13:43;;;;;;;3.6;2.05;;;;;;;0.71;63.96777;95182.36;;;;
2020/01/10 00:14:45;;;;;;;3.6;2.05;;;;;;;0.71;63.96777;95182.36;;;;
2020/01/10 00:15:45;;;;;;;3.6;2.05;;;;;;;0.71;63.96777;95182.36;;;;
2020/01/10 00:16:46;;;;;;;3.6;2.05;;;;;;;0.71;63.96777;95182.36;;;;
2020/01/10 00:17:48;;;;;;;3.6;2.05;;;;;;;0.71;63.96777;95182.36;;;;
2020/01/10 00:18:48;;;;;;;3.6;2.05;;;;;;;0.71;63.96777;95182.36;;;;
2020/01/10 00:19:49;;;;;;;3.6;2.05;;;;;;;0.71;63.96777;95182.36;;;;
2020/01/10 00:20:49;;;;;;;3.6;2.05;;;;;;;0.71;63.96777;95182.36;;;;
2020/01/10 00:21:51;;;;;;;3.9;2.9;;;;;;;0.67;64.66406;95176.15;;;;
2020/01/10 00:22:51;;;;;;;3.9;2.9;;;;;;;0.67;64.66406;95176.15;;;;
2020/01/10 00:23:52;;;;;;;3.9;2.9;;;;;;;0.67;64.66406;95176.15;;;;
2020/01/10 00:24:52;;;;;;;3.9;2.9;;;;;;;0.67;64.66406;95176.15;;;;
2020/01/10 00:25:53;;;;;;;3.9;2.9;;;;;;;0.67;64.66406;95176.15;;;;
2020/01/10 00:26:54;;;;;;;3.9;2.9;;;;;;;0.67;64.66406;95176.15;;;;
2020/01/10 00:27:54;;;;;;;3.9;2.9;;;;;;;0.67;64.66406;95176.15;;;;
2020/01/10 00:28:57;;;;;;;3.9;2.9;;;;;;;0.67;64.66406;95176.15;;;;
2020/01/10 00:30:06;;;;;;;3.9;2.9;;;;;;;0.67;64.66406;95176.15;;;;
2020/01/10 00:31:06;;;;;;;3.9;2.9;;;;;;;0.67;64.66406;95176.15;;;;
2020/01/10 00:32:08;;;;;;;3.5;2.3;;;;;;;0.62;64.68848;95174.13;;;;
2020/01/10 00:33:36;;;;;;;3.5;2.3;;;;;;;0.62;64.68848;95174.13;;;;
2020/01/10 00:34:37;;;;;;;3.5;2.3;;;;;;;0.62;64.68848;95174.13;;;;
2020/01/10 00:35:37;;;;;;;3.5;2.3;;;;;;;0.62;64.68848;95174.13;;;;
2020/01/10 00:36:38;;;;;;;3.5;2.3;;;;;;;0.62;64.68848;95174.13;;;;
2020/01/10 00:37:38;;;;;;;3.5;2.3;;;;;;;0.62;64.68848;95174.13;;;;
2020/01/10 00:38:39;;;;;;;3.5;2.3;;;;;;;0.62;64.68848;95174.13;;;;
2020/01/10 00:39:39;;;;;;;3.5;2.3;;;;;;;0.62;64.68848;95174.13;;;;
2020/01/10 00:41:04;;;;;;;3.5;2.3;;;;;;;0.62;64.68848;95174.13;;;;
2020/01/10 00:42:08;;;;;;;3.5;2.3;;;;;;;0.62;64.68848;95174.13;;;;
2020/01/10 00:43:08;;;;;;;2.6;2.05;;;;;;;0.55;64.89746;95190.45;;;;
2020/01/10 00:44:09;;;;;;;2.6;2.05;;;;;;;0.55;64.89746;95190.45;;;;
2020/01/10 00:45:09;;;;;;;2.6;2.05;;;;;;;0.55;64.89746;95190.45;;;;
2020/01/10 00:46:12;;;;;;;2.6;2.05;;;;;;;0.55;64.89746;95190.45;;;;
2020/01/10 00:47:12;;;;;;;2.6;2.05;;;;;;;0.55;64.89746;95190.45;;;;
2020/01/10 00:48:13;;;;;;;2.6;2.05;;;;;;;0.55;64.89746;95190.45;;;;
2020/01/10 00:49:13;;;;;;;2.6;2.05;;;;;;;0.55;64.89746;95190.45;;;;
2020/01/10 00:50:14;;;;;;;2.6;2.05;;;;;;;0.55;64.89746;95190.45;;;;
2020/01/10 00:51:15;;;;;;;2.6;2.05;;;;;;;0.55;64.89746;95190.45;;;;
2020/01/10 00:52:15;;;;;;;2.6;2.05;;;;;;;0.55;64.89746;95190.45;;;;
2020/01/10 00:53:16;;;;;;;3.45;2.2;;;;;;;0.52;64.97754;95201.45;;;;
2020/01/10 00:54:16;;;;;;;3.45;2.2;;;;;;;0.52;64.97754;95201.45;;;;
2020/01/10 00:55:17;;;;;;;3.45;2.2;;;;;;;0.52;64.97754;95201.45;;;;
2020/01/10 00:56:17;;;;;;;3.45;2.2;;;;;;;0.52;64.97754;95201.45;;;;
2020/01/10 00:57:18;;;;;;;3.45;2.2;;;;;;;0.52;64.97754;95201.45;;;;
2020/01/10 00:58:18;;;;;;;3.45;2.2;;;;;;;0.52;64.97754;95201.45;;;;
2020/01/10 00:59:19;;;;;;;3.45;2.2;;;;;;;0.52;64.97754;95201.45;;;;
2020/01/10 01:00:19;;;;;;;3.45;2.2;;;;;;;0.52;64.97754;95201.45;;;;
2020/01/10 01:01:31;;;;;;;3.45;2.2;;;;;;;0.52;64.97754;95201.45;;;;
2020/01/10 01:04:34;;;;;;;3.45;2.2;;;;;;;0.52;64.97754;95201.45;;;;
2020/01/10 01:05:35;;;;;;;3;2;;;;;;;0.61;65.33789;95208.36;;;;
2020/01/10 01:07:47;;;;;;;3;2;;;;;;;0.61;65.33789;95208.36;;;;
2020/01/10 01:09:30;;;;;;;3;2;;;;;;;0.61;65.33789;95208.36;;;;
2020/01/10 01:10:56;;;;;;;3;2;;;;;;;0.61;65.33789;95208.36;;;;
2020/01/10 01:11:59;;;;;;;3;2;;;;;;;0.61;65.33789;95208.36;;;;
2020/01/10 01:13:00;;;;;;;3;2;;;;;;;0.61;65.33789;95208.36;;;;
2020/01/10 01:14:12;;;;;;;3;2;;;;;;;0.61;65.33789;95208.36;;;;
2020/01/10 01:25:45;;;;;;;2.8;1.85;;;;;;;0.63;65.36133;95229.85;;;;
2020/01/10 01:26:45;;;;;;;2.8;1.85;;;;;;;0.63;65.36133;95229.85;;;;
2020/01/10 01:27:46;;;;;;;2.8;1.85;;;;;;;0.63;65.36133;95229.85;;;;
2020/01/10 01:28:52;;;;;;;2.8;1.85;;;;;;;0.63;65.36133;95229.85;;;;
2020/01/10 01:29:52;;;;;;;2.8;1.85;;;;;;;0.63;65.36133;95229.85;;;;
2020/01/10 01:30:54;;;;;;;2.8;1.85;;;;;;;0.63;65.36133;95229.85;;;;
2020/01/10 01:31:54;;;;;;;2.8;1.85;;;;;;;0.63;65.36133;95229.85;;;;
2020/01/10 01:32:54;;;;;;;2.8;1.85;;;;;;;0.63;65.36133;95229.85;;;;
2020/01/10 01:33:55;;;;;;;2.8;1.85;;;;;;;0.63;65.36133;95229.85;;;;
2020/01/10 01:34:59;;;;;;;2.8;1.85;;;;;;;0.63;65.36133;95229.85;;;;
2020/01/10 01:36:00;;;;;;;2.3;1.8;;;;;;;0.45;65.44922;95240.34;;;;
2020/01/10 01:37:00;;;;;;;2.3;1.8;;;;;;;0.45;65.44922;95240.34;;;;
2020/01/10 01:38:01;;;;;;;2.3;1.8;;;;;;;0.45;65.44922;95240.34;;;;
2020/01/10 01:39:02;;;;;;;2.3;1.8;;;;;;;0.45;65.44922;95240.34;;;;
2020/01/10 01:40:36;;;;;;;2.3;1.8;;;;;;;0.45;65.44922;95240.34;;;;
2020/01/10 01:41:37;;;;;;;2.3;1.8;;;;;;;0.45;65.44922;95240.34;;;;
2020/01/10 01:42:38;;;;;;;2.3;1.8;;;;;;;0.45;65.44922;95240.34;;;;
2020/01/10 01:43:38;;;;;;;2.3;1.8;;;;;;;0.45;65.44922;95240.34;;;;
2020/01/10 01:44:38;;;;;;;2.3;1.8;;;;;;;0.45;65.44922;95240.34;;;;
2020/01/10 01:45:39;;;;;;;2.3;1.8;;;;;;;0.45;65.44922;95240.34;;;;
2020/01/10 01:46:39;;;;;;;2.1;1.65;;;;;;;0.29;65.68652;95255;;;;
2020/01/10 01:47:40;;;;;;;2.1;1.65;;;;;;;0.29;65.68652;95255;;;;
2020/01/10 01:48:40;;;;;;;2.1;1.65;;;;;;;0.29;65.68652;95255;;;;
2020/01/10 01:49:41;;;;;;;2.1;1.65;;;;;;;0.29;65.68652;95255;;;;
2020/01/10 01:50:41;;;;;;;2.1;1.65;;;;;;;0.29;65.68652;95255;;;;
2020/01/10 01:51:42;;;;;;;2.1;1.65;;;;;;;0.29;65.68652;95255;;;;
2020/01/10 01:52:42;;;;;;;2.1;1.65;;;;;;;0.29;65.68652;95255;;;;
2020/01/10 01:53:43;;;;;;;2.1;1.65;;;;;;;0.29;65.68652;95255;;;;
2020/01/10 01:54:43;;;;;;;2.1;1.65;;;;;;;0.29;65.68652;95255;;;;
2020/01/10 01:55:45;;;;;;;2.1;1.65;;;;;;;0.29;65.68652;95255;;;;
2020/01/10 01:56:45;;;;;;;2.1;1.65;;;;;;;0.29;65.68652;95255;;;;
2020/01/10 01:57:46;;;;;;;2.2;1.4;;;;;;;0.07;65.97559;95259.36;;;;
2020/01/10 01:58:46;;;;;;;2.2;1.4;;;;;;;0.07;65.97559;95259.36;;;;
2020/01/10 01:59:47;;;;;;;2.2;1.4;;;;;;;0.07;65.97559;95259.36;;;;
2020/01/10 02:00:47;;;;;;;2.2;1.4;;;;;;;0.07;65.97559;95259.36;;;;
2020/01/10 02:01:52;;;;;;;2.2;1.4;;;;;;;0.07;65.97559;95259.36;;;;
2020/01/10 02:02:58;;;;;;;2.2;1.4;;;;;;;0.07;65.97559;95259.36;;;;
2020/01/10 02:04:00;;;;;;;2.2;1.4;;;;;;;0.07;65.97559;95259.36;;;;
2020/01/10 02:05:03;;;;;;;2.2;1.4;;;;;;;0.07;65.97559;95259.36;;;;
2020/01/10 02:10:32;;;;;;;3.05;1.7;;;;;;;-0.02;66.28711;95276.64;;;;
2020/01/10 02:12:15;;;;;;;3.05;1.7;;;;;;;-0.02;66.28711;95276.64;;;;
2020/01/10 02:14:09;;;;;;;3.05;1.7;;;;;;;-0.02;66.28711;95276.64;;;;
2020/01/10 02:15:10;;;;;;;3.05;1.7;;;;;;;-0.02;66.28711;95276.64;;;;
2020/01/10 02:16:11;;;;;;;3.05;1.7;;;;;;;-0.02;66.28711;95276.64;;;;
2020/01/10 02:17:12;;;;;;;3.05;1.7;;;;;;;-0.02;66.28711;95276.64;;;;
2020/01/10 02:18:12;;;;;;;1.6;1.5;;;;;;;-0.16;66.37012;95285.31;;;;
2020/01/10 02:19:13;;;;;;;1.6;1.5;;;;;;;-0.16;66.37012;95285.31;;;;
2020/01/10 02:20:46;;;;;;;1.6;1.5;;;;;;;-0.16;66.37012;95285.31;;;;
2020/01/10 02:21:46;;;;;;;1.6;1.5;;;;;;;-0.16;66.37012;95285.31;;;;
2020/01/10 02:22:47;;;;;;;1.6;1.5;;;;;;;-0.16;66.37012;95285.31;;;;
2020/01/10 02:23:48;;;;;;;1.6;1.5;;;;;;;-0.16;66.37012;95285.31;;;;
2020/01/10 02:24:56;;;;;;;1.6;1.5;;;;;;;-0.16;66.37012;95285.31;;;;
2020/01/10 02:25:56;;;;;;;1.6;1.5;;;;;;;-0.16;66.37012;95285.31;;;;
2020/01/10 02:26:57;;;;;;;1.6;1.5;;;;;;;-0.16;66.37012;95285.31;;;;
2020/01/10 02:29:02;;;;;;;2.3;1.6;;;;;;;-0.19;66.7207;95292.3;;;;
2020/01/10 02:30:20;;;;;;;2.3;1.6;;;;;;;-0.19;66.7207;95292.3;;;;
2020/01/10 02:31:36;;;;;;;2.3;1.6;;;;;;;-0.19;66.7207;95292.3;;;;
2020/01/10 02:32:37;;;;;;;2.3;1.6;;;;;;;-0.19;66.7207;95292.3;;;;
2020/01/10 02:33:41;;;;;;;2.3;1.6;;;;;;;-0.19;66.7207;95292.3;;;;
2020/01/10 02:34:41;;;;;;;2.3;1.6;;;;;;;-0.19;66.7207;95292.3;;;;
2020/01/10 02:35:42;;;;;;;2.3;1.6;;;;;;;-0.19;66.7207;95292.3;;;;
2020/01/10 02:36:52;;;;;;;2.3;1.6;;;;;;;-0.19;66.7207;95292.3;;;;
2020/01/10 02:37:53;;;;;;;2.3;1.6;;;;;;;-0.19;66.7207;95292.3;;;;
2020/01/10 02:38:54;;;;;;;2.3;1.6;;;;;;;-0.19;66.7207;95292.3;;;;
2020/01/10 02:39:56;;;;;;;2.5;1.7;;;;;;;0.15;67.09668;95311.06;;;;
2020/01/10 02:41:20;;;;;;;2.5;1.7;;;;;;;0.15;67.09668;95311.06;;;;
2020/01/10 02:42:32;;;;;;;2.5;1.7;;;;;;;0.15;67.09668;95311.06;;;;
2020/01/10 02:43:33;;;;;;;2.5;1.7;;;;;;;0.15;67.09668;95311.06;;;;
2020/01/10 02:45:08;;;;;;;2.5;1.7;;;;;;;0.15;67.09668;95311.06;;;;
2020/01/10 02:46:09;;;;;;;2.5;1.7;;;;;;;0.15;67.09668;95311.06;;;;
2020/01/10 02:47:09;;;;;;;2.5;1.7;;;;;;;0.15;67.09668;95311.06;;;;
2020/01/10 02:48:23;;;;;;;2.5;1.7;;;;;;;0.15;67.09668;95311.06;;;;
2020/01/10 02:49:23;;;;;;;2.5;1.7;;;;;;;0.15;67.09668;95311.06;;;;
2020/01/10 02:50:27;;;;;;;2.5;1.7;;;;;;;0.15;67.09668;95311.06;;;;
2020/01/10 02:51:27;;;;;;;2.5;1.7;;;;;;;0.15;67.09668;95311.06;;;;
2020/01/10 02:52:28;;;;;;;2.5;1.7;;;;;;;0.15;67.09668;95311.06;;;;
2020/01/10 02:53:28;;;;;;;2.5;1.7;;;;;;;0.15;67.09668;95311.06;;;;
2020/01/10 02:54:29;;;;;;;2.5;1.7;;;;;;;0.15;67.09668;95311.06;;;;
2020/01/10 02:55:29;;;;;;;2.5;1.7;;;;;;;0.15;67.09668;95311.06;;;;
2020/01/10 02:56:30;;;;;;;2.5;1.7;;;;;;;0.15;67.09668;95311.06;;;;
2020/01/10 02:57:30;;;;;;;2.5;1.7;;;;;;;0.15;67.09668;95311.06;;;;
2020/01/10 02:58:31;;;;;;;2.5;1.7;;;;;;;0.15;67.09668;95311.06;;;;
2020/01/10 02:59:31;;;;;;;2.5;1.7;;;;;;;0.15;67.09668;95311.06;;;;
2020/01/10 03:00:31;;;;;;;2.5;1.7;;;;;;;0.15;67.09668;95311.06;;;;
2020/01/10 03:01:32;;;;;;;2.8;1.85;;;;;;;1.14;66.81348;95328.78;;;;
2020/01/10 03:02:40;;;;;;;2.8;1.85;;;;;;;1.14;66.81348;95328.78;;;;
2020/01/10 03:03:40;;;;;;;2.8;1.85;;;;;;;1.14;66.81348;95328.78;;;;
2020/01/10 03:04:41;;;;;;;2.8;1.85;;;;;;;1.14;66.81348;95328.78;;;;
2020/01/10 03:05:43;;;;;;;2.8;1.85;;;;;;;1.14;66.81348;95328.78;;;;
2020/01/10 03:06:44;;;;;;;2.8;1.85;;;;;;;1.14;66.81348;95328.78;;;;
2020/01/10 03:07:45;;;;;;;2.8;1.85;;;;;;;1.14;66.81348;95328.78;;;;
2020/01/10 03:08:45;;;;;;;2.8;1.85;;;;;;;1.14;66.81348;95328.78;;;;
2020/01/10 03:09:46;;;;;;;2.8;1.85;;;;;;;1.14;66.81348;95328.78;;;;
2020/01/10 03:10:47;;;;;;;2.8;1.85;;;;;;;1.14;66.81348;95328.78;;;;
2020/01/10 03:11:48;;;;;;;2.7;1.8;;;;;;;1.49;66.82617;95345.47;;;;
2020/01/10 03:12:49;;;;;;;2.7;1.8;;;;;;;1.49;66.82617;95345.47;;;;
2020/01/10 03:13:49;;;;;;;2.7;1.8;;;;;;;1.49;66.82617;95345.47;;;;
2020/01/10 03:14:49;;;;;;;2.7;1.8;;;;;;;1.49;66.82617;95345.47;;;;
2020/01/10 03:15:51;;;;;;;2.7;1.8;;;;;;;1.49;66.82617;95345.47;;;;
2020/01/10 03:17:07;;;;;;;2.7;1.8;;;;;;;1.49;66.82617;95345.47;;;;
2020/01/10 03:19:18;;;;;;;2.7;1.8;;;;;;;1.49;66.82617;95345.47;;;;
2020/01/10 03:20:55;;;;;;;2.7;1.8;;;;;;;1.49;66.82617;95345.47;;;;
2020/01/10 03:21:56;;;;;;;2.7;1.8;;;;;;;1.49;66.82617;95345.47;;;;
2020/01/10 03:22:58;;;;;;;3.75;2.05;;;;;;;1.86;66.7998;95341.47;;;;
2020/01/10 03:24:49;;;;;;;3.75;2.05;;;;;;;1.86;66.7998;95341.47;;;;
2020/01/10 03:26:02;;;;;;;3.75;2.05;;;;;;;1.86;66.7998;95341.47;;;;
2020/01/10 03:27:24;;;;;;;3.75;2.05;;;;;;;1.86;66.7998;95341.47;;;;
2020/01/10 03:28:26;;;;;;;3.75;2.05;;;;;;;1.86;66.7998;95341.47;;;;
2020/01/10 03:29:27;;;;;;;3.75;2.05;;;;;;;1.86;66.7998;95341.47;;;;
2020/01/10 03:30:28;;;;;;;3.75;2.05;;;;;;;1.86;66.7998;95341.47;;;;
2020/01/10 03:31:28;;;;;;;3.75;2.05;;;;;;;1.86;66.7998;95341.47;;;;
2020/01/10 03:32:29;;;;;;;3.75;2.05;;;;;;;1.86;66.7998;95341.47;;;;
2020/01/10 03:33:29;;;;;;;2.4;1.8;;;;;;;2.52;66.28125;95351.62;;;;
2020/01/10 03:34:30;;;;;;;2.4;1.8;;;;;;;2.52;66.28125;95351.62;;;;
2020/01/10 03:35:30;;;;;;;2.4;1.8;;;;;;;2.52;66.28125;95351.62;;;;
2020/01/10 03:36:31;;;;;;;2.4;1.8;;;;;;;2.52;66.28125;95351.62;;;;
2020/01/10 03:37:31;;;;;;;2.4;1.8;;;;;;;2.52;66.28125;95351.62;;;;
2020/01/10 03:38:32;;;;;;;2.4;1.8;;;;;;;2.52;66.28125;95351.62;;;;
2020/01/10 03:39:32;;;;;;;2.4;1.8;;;;;;;2.52;66.28125;95351.62;;;;
2020/01/10 03:40:33;;;;;;;2.4;1.8;;;;;;;2.52;66.28125;95351.62;;;;
2020/01/10 03:41:34;;;;;;;2.4;1.8;;;;;;;2.52;66.28125;95351.62;;;;
2020/01/10 03:42:34;;;;;;;2.4;1.8;;;;;;;2.52;66.28125;95351.62;;;;
2020/01/10 03:43:35;;;;;;;2.25;1.85;;;;;;;2.92;65.70215;95362.7;;;;
2020/01/10 03:44:35;;;;;;;2.25;1.85;;;;;;;2.92;65.70215;95362.7;;;;
2020/01/10 03:45:36;;;;;;;2.25;1.85;;;;;;;2.92;65.70215;95362.7;;;;
2020/01/10 03:46:38;;;;;;;2.25;1.85;;;;;;;2.92;65.70215;95362.7;;;;
2020/01/10 03:47:42;;;;;;;2.25;1.85;;;;;;;2.92;65.70215;95362.7;;;;
2020/01/10 03:48:45;;;;;;;2.25;1.85;;;;;;;2.92;65.70215;95362.7;;;;
2020/01/10 03:49:53;;;;;;;2.25;1.85;;;;;;;2.92;65.70215;95362.7;;;;
2020/01/10 03:51:13;;;;;;;2.25;1.85;;;;;;;2.92;65.70215;95362.7;;;;
2020/01/10 03:55:51;;;;;;;6.299998;2.5;;;;;;;3.12;65.22461;95360.25;;;;
2020/01/10 03:56:52;;;;;;;6.299998;2.5;;;;;;;3.12;65.22461;95360.25;;;;
2020/01/10 03:57:52;;;;;;;6.299998;2.5;;;;;;;3.12;65.22461;95360.25;;;;
2020/01/10 03:58:53;;;;;;;6.299998;2.5;;;;;;;3.12;65.22461;95360.25;;;;
2020/01/10 03:59:54;;;;;;;6.299998;2.5;;;;;;;3.12;65.22461;95360.25;;;;
2020/01/10 04:00:54;;;;;;;6.299998;2.5;;;;;;;3.12;65.22461;95360.25;;;;
2020/01/10 04:01:55;;;;;;;6.299998;2.5;;;;;;;3.12;65.22461;95360.25;;;;
2020/01/10 04:02:55;;;;;;;6.299998;2.5;;;;;;;3.12;65.22461;95360.25;;;;
2020/01/10 04:03:56;;;;;;;6.299998;2.5;;;;;;;3.12;65.22461;95360.25;;;;
2020/01/10 04:04:56;;;;;;;3.699999;1.95;;;;;;;3.06;65.03809;95361.41;;;;
2020/01/10 04:05:57;;;;;;;3.699999;1.95;;;;;;;3.06;65.03809;95361.41;;;;
2020/01/10 04:06:57;;;;;;;3.699999;1.95;;;;;;;3.06;65.03809;95361.41;;;;
2020/01/10 04:07:58;;;;;;;3.699999;1.95;;;;;;;3.06;65.03809;95361.41;;;;
2020/01/10 04:09:06;;;;;;;3.699999;1.95;;;;;;;3.06;65.03809;95361.41;;;;
2020/01/10 04:10:46;;;;;;;3.699999;1.95;;;;;;;3.06;65.03809;95361.41;;;;
2020/01/10 04:11:54;;;;;;;3.699999;1.95;;;;;;;3.06;65.03809;95361.41;;;;
2020/01/10 04:13:05;;;;;;;3.699999;1.95;;;;;;;3.06;65.03809;95361.41;;;;
2020/01/10 04:14:39;;;;;;;3.699999;1.95;;;;;;;3.06;65.03809;95361.41;;;;
2020/01/10 04:15:41;;;;;;;2.15;1.95;;;;;;;2.95;64.89453;95370.31;;;;
2020/01/10 04:16:41;;;;;;;2.15;1.95;;;;;;;2.95;64.89453;95370.31;;;;
2020/01/10 04:17:42;;;;;;;2.15;1.95;;;;;;;2.95;64.89453;95370.31;;;;
2020/01/10 04:18:42;;;;;;;2.15;1.95;;;;;;;2.95;64.89453;95370.31;;;;
2020/01/10 04:19:43;;;;;;;2.15;1.95;;;;;;;2.95;64.89453;95370.31;;;;
2020/01/10 04:20:43;;;;;;;2.15;1.95;;;;;;;2.95;64.89453;95370.31;;;;
2020/01/10 04:21:44;;;;;;;2.15;1.95;;;;;;;2.95;64.89453;95370.31;;;;
2020/01/10 04:22:44;;;;;;;2.15;1.95;;;;;;;2.95;64.89453;95370.31;;;;
2020/01/10 04:23:45;;;;;;;2.15;1.95;;;;;;;2.95;64.89453;95370.31;;;;
2020/01/10 04:24:45;;;;;;;2.15;1.95;;;;;;;2.95;64.89453;95370.31;;;;
2020/01/10 04:25:46;;;;;;;2.15;1.95;;;;;;;2.95;64.89453;95370.31;;;;
2020/01/10 04:26:46;;;;;;;3.05;1.8;;;;;;;2.61;64.90625;95376.75;;;;
2020/01/10 04:27:47;;;;;;;3.05;1.8;;;;;;;2.61;64.90625;95376.75;;;;
2020/01/10 04:28:47;;;;;;;3.05;1.8;;;;;;;2.61;64.90625;95376.75;;;;
2020/01/10 04:29:48;;;;;;;3.05;1.8;;;;;;;2.61;64.90625;95376.75;;;;
2020/01/10 04:30:49;;;;;;;3.05;1.8;;;;;;;2.61;64.90625;95376.75;;;;
2020/01/10 04:31:50;;;;;;;3.05;1.8;;;;;;;2.61;64.90625;95376.75;;;;
2020/01/10 04:32:53;;;;;;;3.05;1.8;;;;;;;2.61;64.90625;95376.75;;;;
2020/01/10 04:33:53;;;;;;;3.05;1.8;;;;;;;2.61;64.90625;95376.75;;;;
2020/01/10 04:34:54;;;;;;;3.05;1.8;;;;;;;2.61;64.90625;95376.75;;;;
2020/01/10 04:35:54;;;;;;;3.05;1.8;;;;;;;2.61;64.90625;95376.75;;;;
2020/01/10 04:36:55;;;;;;;2.3;1.8;;;;;;;2.23;65.15332;95393.44;;;;
2020/01/10 04:37:55;;;;;;;2.3;1.8;;;;;;;2.23;65.15332;95393.44;;;;
2020/01/10 04:38:56;;;;;;;2.3;1.8;;;;;;;2.23;65.15332;95393.44;;;;
2020/01/10 04:39:56;;;;;;;2.3;1.8;;;;;;;2.23;65.15332;95393.44;;;;
2020/01/10 04:40:56;;;;;;;2.3;1.8;;;;;;;2.23;65.15332;95393.44;;;;
2020/01/10 04:41:58;;;;;;;2.3;1.8;;;;;;;2.23;65.15332;95393.44;;;;
2020/01/10 04:42:59;;;;;;;2.3;1.8;;;;;;;2.23;65.15332;95393.44;;;;
2020/01/10 04:43:59;;;;;;;2.3;1.8;;;;;;;2.23;65.15332;95393.44;;;;
2020/01/10 04:45:00;;;;;;;2.3;1.8;;;;;;;2.23;65.15332;95393.44;;;;
2020/01/10 04:46:00;;;;;;;2.3;1.8;;;;;;;2.23;65.15332;95393.44;;;;
2020/01/10 04:47:00;;;;;;;2.3;1.8;;;;;;;2.23;65.15332;95393.44;;;;
2020/01/10 04:48:01;;;;;;;3.6;2.2;;;;;;;1.84;65.45117;95400.29;;;;
2020/01/10 04:49:02;;;;;;;3.6;2.2;;;;;;;1.84;65.45117;95400.29;;;;
2020/01/10 04:50:02;;;;;;;3.6;2.2;;;;;;;1.84;65.45117;95400.29;;;;
2020/01/10 04:51:03;;;;;;;3.6;2.2;;;;;;;1.84;65.45117;95400.29;;;;
2020/01/10 04:52:04;;;;;;;3.6;2.2;;;;;;;1.84;65.45117;95400.29;;;;
2020/01/10 04:53:04;;;;;;;3.6;2.2;;;;;;;1.84;65.45117;95400.29;;;;
2020/01/10 04:54:04;;;;;;;3.6;2.2;;;;;;;1.84;65.45117;95400.29;;;;
2020/01/10 04:55:05;;;;;;;3.6;2.2;;;;;;;1.84;65.45117;95400.29;;;;
2020/01/10 04:56:06;;;;;;;3.6;2.2;;;;;;;1.84;65.45117;95400.29;;;;
2020/01/10 04:57:06;;;;;;;3.6;2.2;;;;;;;1.84;65.45117;95400.29;;;;
2020/01/10 04:58:07;;;;;;;3.3;1.9;;;;;;;1.62;65.56445;95416.71;;;;
2020/01/10 04:59:08;;;;;;;3.3;1.9;;;;;;;1.62;65.56445;95416.71;;;;
2020/01/10 05:00:08;;;;;;;3.3;1.9;;;;;;;1.62;65.56445;95416.71;;;;
2020/01/10 05:01:10;;;;;;;3.3;1.9;;;;;;;1.62;65.56445;95416.71;;;;
2020/01/10 05:02:10;;;;;;;3.3;1.9;;;;;;;1.62;65.56445;95416.71;;;;
2020/01/10 05:03:11;;;;;;;3.3;1.9;;;;;;;1.62;65.56445;95416.71;;;;
2020/01/10 05:04:11;;;;;;;3.3;1.9;;;;;;;1.62;65.56445;95416.71;;;;
2020/01/10 05:05:12;;;;;;;3.3;1.9;;;;;;;1.62;65.56445;95416.71;;;;
2020/01/10 05:06:13;;;;;;;3.3;1.9;;;;;;;1.62;65.56445;95416.71;;;;
2020/01/10 05:07:13;;;;;;;3.3;1.9;;;;;;;1.62;65.56445;95416.71;;;;
2020/01/10 05:08:14;;;;;;;3.3;1.9;;;;;;;1.62;65.56445;95416.71;;;;
2020/01/10 05:09:14;;;;;;;2.75;1.95;;;;;;;1.37;65.76953;95415.12;;;;
2020/01/10 05:10:21;;;;;;;2.75;1.95;;;;;;;1.37;65.76953;95415.12;;;;
2020/01/10 05:11:21;;;;;;;2.75;1.95;;;;;;;1.37;65.76953;95415.12;;;;
2020/01/10 05:12:22;;;;;;;2.75;1.95;;;;;;;1.37;65.76953;95415.12;;;;
2020/01/10 05:13:22;;;;;;;2.75;1.95;;;;;;;1.37;65.76953;95415.12;;;;
2020/01/10 05:14:23;;;;;;;2.75;1.95;;;;;;;1.37;65.76953;95415.12;;;;
2020/01/10 05:15:23;;;;;;;2.75;1.95;;;;;;;1.37;65.76953;95415.12;;;;
2020/01/10 05:16:24;;;;;;;2.75;1.95;;;;;;;1.37;65.76953;95415.12;;;;
2020/01/10 05:17:24;;;;;;;2.75;1.95;;;;;;;1.37;65.76953;95415.12;;;;
2020/01/10 05:18:25;;;;;;;2.75;1.95;;;;;;;1.37;65.76953;95415.12;;;;
2020/01/10 05:19:25;;;;;;;3.4;2.05;;;;;;;1.22;65.92285;95416.99;;;;
2020/01/10 05:20:26;;;;;;;3.4;2.05;;;;;;;1.22;65.92285;95416.99;;;;
2020/01/10 05:21:26;;;;;;;3.4;2.05;;;;;;;1.22;65.92285;95416.99;;;;
2020/01/10 05:22:27;;;;;;;3.4;2.05;;;;;;;1.22;65.92285;95416.99;;;;
2020/01/10 05:23:27;;;;;;;3.4;2.05;;;;;;;1.22;65.92285;95416.99;;;;
2020/01/10 05:24:28;;;;;;;3.4;2.05;;;;;;;1.22;65.92285;95416.99;;;;
2020/01/10 05:25:29;;;;;;;3.4;2.05;;;;;;;1.22;65.92285;95416.99;;;;
2020/01/10 05:26:29;;;;;;;3.4;2.05;;;;;;;1.22;65.92285;95416.99;;;;
2020/01/10 05:27:29;;;;;;;3.4;2.05;;;;;;;1.22;65.92285;95416.99;;;;
2020/01/10 05:28:30;;;;;;;3.4;2.05;;;;;;;1.22;65.92285;95416.99;;;;
2020/01/10 05:29:30;;;;;;;3.4;2.05;;;;;;;1.22;65.92285;95416.99;;;;
2020/01/10 05:30:31;;;;;;;4.2;2.2;;;;;;;0.95;66.08203;95412.46;;;;
2020/01/10 05:31:32;;;;;;;4.2;2.2;;;;;;;0.95;66.08203;95412.46;;;;
2020/01/10 05:32:32;;;;;;;4.2;2.2;;;;;;;0.95;66.08203;95412.46;;;;
2020/01/10 05:33:32;;;;;;;4.2;2.2;;;;;;;0.95;66.08203;95412.46;;;;
2020/01/10 05:34:33;;;;;;;4.2;2.2;;;;;;;0.95;66.08203;95412.46;;;;
2020/01/10 05:35:33;;;;;;;4.2;2.2;;;;;;;0.95;66.08203;95412.46;;;;
2020/01/10 05:36:34;;;;;;;4.2;2.2;;;;;;;0.95;66.08203;95412.46;;;;
2020/01/10 05:37:34;;;;;;;4.2;2.2;;;;;;;0.95;66.08203;95412.46;;;;
2020/01/10 05:38:35;;;;;;;4.2;2.2;;;;;;;0.95;66.08203;95412.46;;;;
2020/01/10 05:39:35;;;;;;;4.2;2.2;;;;;;;0.95;66.08203;95412.46;;;;
2020/01/10 05:40:36;;;;;;;4.75;2.2;;;;;;;0.85;66.33789;95415.01;;;;
2020/01/10 05:41:36;;;;;;;4.75;2.2;;;;;;;0.85;66.33789;95415.01;;;;
2020/01/10 05:42:37;;;;;;;4.75;2.2;;;;;;;0.85;66.33789;95415.01;;;;
2020/01/10 05:43:37;;;;;;;4.75;2.2;;;;;;;0.85;66.33789;95415.01;;;;
2020/01/10 05:44:38;;;;;;;4.75;2.2;;;;;;;0.85;66.33789;95415.01;;;;
2020/01/10 05:45:38;;;;;;;4.75;2.2;;;;;;;0.85;66.33789;95415.01;;;;
2020/01/10 05:46:38;;;;;;;4.75;2.2;;;;;;;0.85;66.33789;95415.01;;;;
2020/01/10 05:47:39;;;;;;;4.75;2.2;;;;;;;0.85;66.33789;95415.01;;;;
2020/01/10 05:48:39;;;;;;;4.75;2.2;;;;;;;0.85;66.33789;95415.01;;;;
2020/01/10 05:49:40;;;;;;;4.75;2.2;;;;;;;0.85;66.33789;95415.01;;;;
2020/01/10 05:50:40;;;;;;;4.75;2.2;;;;;;;0.85;66.33789;95415.01;;;;
2020/01/10 05:51:41;;;;;;;3.15;2;;;;;;;0.81;66.52148;95421.7;;;;
2020/01/10 05:52:41;;;;;;;3.15;2;;;;;;;0.81;66.52148;95421.7;;;;
2020/01/10 05:53:42;;;;;;;3.15;2;;;;;;;0.81;66.52148;95421.7;;;;
2020/01/10 05:54:42;;;;;;;3.15;2;;;;;;;0.81;66.52148;95421.7;;;;
2020/01/10 05:55:43;;;;;;;3.15;2;;;;;;;0.81;66.52148;95421.7;;;;
2020/01/10 05:56:44;;;;;;;3.15;2;;;;;;;0.81;66.52148;95421.7;;;;
2020/01/10 05:57:44;;;;;;;3.15;2;;;;;;;0.81;66.52148;95421.7;;;;
2020/01/10 05:58:45;;;;;;;3.15;2;;;;;;;0.81;66.52148;95421.7;;;;
2020/01/10 05:59:45;;;;;;;3.15;2;;;;;;;0.81;66.52148;95421.7;;;;
2020/01/10 06:00:45;;;;;;;3.15;2;;;;;;;0.81;66.52148;95421.7;;;;
2020/01/10 06:01:46;;;;;;;2.5;2.05;;;;;;;0.93;66.64453;95431.76;;;;
2020/01/10 06:02:46;;;;;;;2.5;2.05;;;;;;;0.93;66.64453;95431.76;;;;
2020/01/10 06:03:47;;;;;;;2.5;2.05;;;;;;;0.93;66.64453;95431.76;;;;
2020/01/10 06:04:47;;;;;;;2.5;2.05;;;;;;;0.93;66.64453;95431.76;;;;
2020/01/10 06:05:48;;;;;;;2.5;2.05;;;;;;;0.93;66.64453;95431.76;;;;
2020/01/10 06:06:48;;;;;;;2.5;2.05;;;;;;;0.93;66.64453;95431.76;;;;
2020/01/10 06:07:49;;;;;;;2.5;2.05;;;;;;;0.93;66.64453;95431.76;;;;
2020/01/10 06:08:49;;;;;;;2.5;2.05;;;;;;;0.93;66.64453;95431.76;;;;
2020/01/10 06:09:49;;;;;;;2.5;2.05;;;;;;;0.93;66.64453;95431.76;;;;
2020/01/10 06:10:50;;;;;;;2.5;2.05;;;;;;;0.93;66.64453;95431.76;;;;
2020/01/10 06:11:50;;;;;;;2.5;2.05;;;;;;;0.93;66.64453;95431.76;;;;
2020/01/10 06:12:51;;;;;;;2.6;2.05;;;;;;;0.95;66.66895;95435.58;;;;
2020/01/10 06:13:51;;;;;;;2.6;2.05;;;;;;;0.95;66.66895;95435.58;;;;
2020/01/10 06:14:52;;;;;;;2.6;2.05;;;;;;;0.95;66.66895;95435.58;;;;
2020/01/10 06:15:52;;;;;;;2.6;2.05;;;;;;;0.95;66.66895;95435.58;;;;
2020/01/10 06:16:53;;;;;;;2.6;2.05;;;;;;;0.95;66.66895;95435.58;;;;
2020/01/10 06:17:53;;;;;;;2.6;2.05;;;;;;;0.95;66.66895;95435.58;;;;
2020/01/10 06:18:54;;;;;;;2.6;2.05;;;;;;;0.95;66.66895;95435.58;;;;
2020/01/10 06:19:54;;;;;;;2.6;2.05;;;;;;;0.95;66.66895;95435.58;;;;
2020/01/10 06:20:55;;;;;;;2.6;2.05;;;;;;;0.95;66.66895;95435.58;;;;
2020/01/10 06:21:55;;;;;;;2.6;2.05;;;;;;;0.95;66.66895;95435.58;;;;
2020/01/10 06:23:06;;;;;;;3.1;2.25;;;;;;;0.97;66.80859;95430.5;;;;
2020/01/10 06:29:28;;;;;;;3.1;2.25;;;;;;;0.97;66.80859;95430.5;;;;
2020/01/10 06:30:29;;;;;;;3.1;2.25;;;;;;;0.97;66.80859;95430.5;;;;
2020/01/10 06:31:29;;;;;;;3.1;2.25;;;;;;;0.97;66.80859;95430.5;;;;
2020/01/10 06:32:30;;;;;;;3.1;2.25;;;;;;;0.97;66.80859;95430.5;;;;
2020/01/10 06:33:31;;;;;;;3.35;2.15;;;;;;;0.97;66.91309;95442.36;;;;
2020/01/10 06:34:31;;;;;;;3.35;2.15;;;;;;;0.97;66.91309;95442.36;;;;
2020/01/10 06:35:32;;;;;;;3.35;2.15;;;;;;;0.97;66.91309;95442.36;;;;
2020/01/10 06:36:32;;;;;;;3.35;2.15;;;;;;;0.97;66.91309;95442.36;;;;
2020/01/10 06:37:33;;;;;;;3.35;2.15;;;;;;;0.97;66.91309;95442.36;;;;